sensor_id;sensor_type;location;lat;lon;timestamp;temperature;humidity
1175;DHT22;576;48.418;10.074;2023-04-01T00:00:02;22.30;59.40
1175;DHT22;576;48.418;10.074;2023-04-01T00:02:37;22.30;59.50
1175;DHT22;576;48.418;10.074;2023-04-01T00:05:07;22.30;59.30
1175;DHT22;576;48.418;10.074;2023-04-01T00:07:37;22.30;59.40
1175;DHT22;576;48.418;10.074;2023-04-01T00:10:06;22.30;59.50
1175;DHT22;576;48.418;10.074;2023-04-01T00:12:35;22.30;59.30
1175;DHT22;576;48.418;10.074;2023-04-01T00:15:07;22.30;59.20
1175;DHT22;576;48.418;10.074;2023-04-01T00:17:35;22.30;59.40
1175;DHT22;576;48.418;10.074;2023-04-01T00:20:05;22.30;59.50
1175;DHT22;576;48.418;10.074;2023-04-01T00:22:34;22.30;59.50
1175;DHT22;576;48.418;10.074;2023-04-01T00:25:02;22.30;59.50
1175;DHT22;576;48.418;10.074;2023-04-01T00:27:31;22.30;59.40
1175;DHT22;576;48.418;10.074;2023-04-01T00:29:59;22.30;59.50
1175;DHT22;576;48.418;10.074;2023-04-01T00:32:29;22.40;59.50
1175;DHT22;576;48.418;10.074;2023-04-01T00:34:58;22.40;59.40
1175;DHT22;576;48.418;10.074;2023-04-01T00:37:27;22.40;59.30
1175;DHT22;576;48.418;10.074;2023-04-01T00:39:56;22.40;59.30
1175;DHT22;576;48.418;10.074;2023-04-01T00:42:24;22.40;59.40
1175;DHT22;576;48.418;10.074;2023-04-01T00:44:53;22.40;59.30
1175;DHT22;576;48.418;10.074;2023-04-01T00:47:22;22.40;59.20
1175;DHT22;576;48.418;10.074;2023-04-01T00:49:54;22.40;59.20
1175;DHT22;576;48.418;10.074;2023-04-01T00:52:25;22.40;59.30
1175;DHT22;576;48.418;10.074;2023-04-01T00:54:56;22.40;59.20
1175;DHT22;576;48.418;10.074;2023-04-01T00:57:31;22.40;59.30
1175;DHT22;576;48.418;10.074;2023-04-01T01:00:00;22.40;59.30
1175;DHT22;576;48.418;10.074;2023-04-01T01:02:28;22.40;59.30
1175;DHT22;576;48.418;10.074;2023-04-01T01:05:00;22.40;59.30
1175;DHT22;576;48.418;10.074;2023-04-01T01:07:33;22.40;59.30
1175;DHT22;576;48.418;10.074;2023-04-01T01:10:09;22.40;59.30
1175;DHT22;576;48.418;10.074;2023-04-01T01:12:41;22.40;59.10
1175;DHT22;576;48.418;10.074;2023-04-01T01:15:16;22.30;59.10
1175;DHT22;576;48.418;10.074;2023-04-01T01:17:55;22.30;59.30
1175;DHT22;576;48.418;10.074;2023-04-01T01:24:05;22.30;59.30
1175;DHT22;576;48.418;10.074;2023-04-01T01:26:49;22.30;59.20
1175;DHT22;576;48.418;10.074;2023-04-01T01:29:41;22.30;59.20
1175;DHT22;576;48.418;10.074;2023-04-01T01:32:20;22.30;59.30
1175;DHT22;576;48.418;10.074;2023-04-01T01:35:03;22.30;59.20
1175;DHT22;576;48.418;10.074;2023-04-01T01:37:32;22.30;59.10
1175;DHT22;576;48.418;10.074;2023-04-01T01:40:03;22.30;59.30
1175;DHT22;576;48.418;10.074;2023-04-01T01:42:36;22.30;59.10
1175;DHT22;576;48.418;10.074;2023-04-01T01:45:07;22.30;59.30
1175;DHT22;576;48.418;10.074;2023-04-01T01:47:37;22.30;59.30
1175;DHT22;576;48.418;10.074;2023-04-01T01:50:09;22.30;59.20
1175;DHT22;576;48.418;10.074;2023-04-01T01:52:37;22.30;59.20
1175;DHT22;576;48.418;10.074;2023-04-01T01:55:24;22.30;59.20
1175;DHT22;576;48.418;10.074;2023-04-01T01:57:55;22.20;59.10
1175;DHT22;576;48.418;10.074;2023-04-01T02:00:26;22.20;59.20
1175;DHT22;576;48.418;10.074;2023-04-01T02:02:57;22.20;59.30
1175;DHT22;576;48.418;10.074;2023-04-01T02:05:28;22.20;59.20
1175;DHT22;576;48.418;10.074;2023-04-01T02:08:08;22.20;59.30
1175;DHT22;576;48.418;10.074;2023-04-01T02:10:41;22.20;59.30
1175;DHT22;576;48.418;10.074;2023-04-01T02:13:16;22.20;59.30
1175;DHT22;576;48.418;10.074;2023-04-01T02:15:47;22.20;59.40
1175;DHT22;576;48.418;10.074;2023-04-01T02:18:19;22.20;59.40
1175;DHT22;576;48.418;10.074;2023-04-01T02:20:49;22.20;59.40
1175;DHT22;576;48.418;10.074;2023-04-01T02:23:18;22.20;59.10
1175;DHT22;576;48.418;10.074;2023-04-01T02:25:47;22.20;59.20
1175;DHT22;576;48.418;10.074;2023-04-01T02:28:17;22.20;59.10
1175;DHT22;576;48.418;10.074;2023-04-01T02:30:48;22.20;59.10
1175;DHT22;576;48.418;10.074;2023-04-01T02:33:18;22.20;59.10
1175;DHT22;576;48.418;10.074;2023-04-01T02:35:50;22.10;59.10
1175;DHT22;576;48.418;10.074;2023-04-01T02:38:19;22.20;59.30
1175;DHT22;576;48.418;10.074;2023-04-01T02:40:49;22.20;59.30
1175;DHT22;576;48.418;10.074;2023-04-01T02:43:17;22.20;59.20
1175;DHT22;576;48.418;10.074;2023-04-01T02:45:48;22.20;59.20
1175;DHT22;576;48.418;10.074;2023-04-01T02:48:17;22.20;59.30
1175;DHT22;576;48.418;10.074;2023-04-01T02:50:45;22.30;59.10
1175;DHT22;576;48.418;10.074;2023-04-01T02:53:15;22.30;59.20
1175;DHT22;576;48.418;10.074;2023-04-01T02:55:44;22.30;59.20
1175;DHT22;576;48.418;10.074;2023-04-01T02:58:12;22.30;59.00
1175;DHT22;576;48.418;10.074;2023-04-01T03:00:40;22.30;59.10
1175;DHT22;576;48.418;10.074;2023-04-01T03:03:09;22.30;59.00
1175;DHT22;576;48.418;10.074;2023-04-01T03:05:37;22.30;58.90
1175;DHT22;576;48.418;10.074;2023-04-01T03:08:05;22.30;59.00
1175;DHT22;576;48.418;10.074;2023-04-01T03:10:35;22.30;59.00
1175;DHT22;576;48.418;10.074;2023-04-01T03:13:04;22.30;58.90
1175;DHT22;576;48.418;10.074;2023-04-01T03:15:33;22.30;59.00
1175;DHT22;576;48.418;10.074;2023-04-01T03:18:01;22.30;59.00
1175;DHT22;576;48.418;10.074;2023-04-01T03:20:30;22.30;58.90
1175;DHT22;576;48.418;10.074;2023-04-01T03:22:58;22.30;58.80
1175;DHT22;576;48.418;10.074;2023-04-01T03:25:26;22.20;58.80
1175;DHT22;576;48.418;10.074;2023-04-01T03:27:56;22.20;59.10
1175;DHT22;576;48.418;10.074;2023-04-01T03:30:26;22.20;58.70
1175;DHT22;576;48.418;10.074;2023-04-01T03:32:55;22.20;59.00
1175;DHT22;576;48.418;10.074;2023-04-01T03:35:23;22.20;59.10
1175;DHT22;576;48.418;10.074;2023-04-01T03:37:52;22.20;59.00
1175;DHT22;576;48.418;10.074;2023-04-01T03:40:20;22.20;59.00
1175;DHT22;576;48.418;10.074;2023-04-01T03:42:49;22.20;58.90
1175;DHT22;576;48.418;10.074;2023-04-01T03:45:19;22.20;59.10
1175;DHT22;576;48.418;10.074;2023-04-01T03:47:47;22.10;59.10
1175;DHT22;576;48.418;10.074;2023-04-01T03:50:15;22.10;59.10
1175;DHT22;576;48.418;10.074;2023-04-01T03:52:43;22.10;59.10
1175;DHT22;576;48.418;10.074;2023-04-01T03:55:11;22.10;58.90
1175;DHT22;576;48.418;10.074;2023-04-01T03:57:40;22.20;59.10
1175;DHT22;576;48.418;10.074;2023-04-01T04:00:16;22.20;59.10
1175;DHT22;576;48.418;10.074;2023-04-01T04:02:50;22.20;59.10
1175;DHT22;576;48.418;10.074;2023-04-01T04:05:24;22.20;59.10
1175;DHT22;576;48.418;10.074;2023-04-01T04:07:53;22.20;59.00
1175;DHT22;576;48.418;10.074;2023-04-01T04:10:22;22.20;59.00
1175;DHT22;576;48.418;10.074;2023-04-01T04:12:52;22.20;59.00
1175;DHT22;576;48.418;10.074;2023-04-01T04:15:22;22.30;58.90
1175;DHT22;576;48.418;10.074;2023-04-01T04:17:52;22.30;58.80
1175;DHT22;576;48.418;10.074;2023-04-01T04:20:20;22.20;58.80
1175;DHT22;576;48.418;10.074;2023-04-01T04:22:48;22.20;58.80
1175;DHT22;576;48.418;10.074;2023-04-01T04:25:17;22.20;58.80
1175;DHT22;576;48.418;10.074;2023-04-01T04:27:45;22.30;58.90
1175;DHT22;576;48.418;10.074;2023-04-01T04:30:15;22.20;58.90
1175;DHT22;576;48.418;10.074;2023-04-01T04:32:43;22.20;58.80
1175;DHT22;576;48.418;10.074;2023-04-01T04:35:13;22.20;58.70
1175;DHT22;576;48.418;10.074;2023-04-01T04:37:42;22.20;58.60
1175;DHT22;576;48.418;10.074;2023-04-01T04:40:10;22.20;58.60
1175;DHT22;576;48.418;10.074;2023-04-01T04:42:39;22.20;58.50
1175;DHT22;576;48.418;10.074;2023-04-01T04:45:11;22.20;58.50
1175;DHT22;576;48.418;10.074;2023-04-01T04:47:46;22.20;58.50
1175;DHT22;576;48.418;10.074;2023-04-01T04:50:16;22.20;58.60
1175;DHT22;576;48.418;10.074;2023-04-01T04:52:45;22.30;58.40
1175;DHT22;576;48.418;10.074;2023-04-01T04:55:13;22.30;58.50
1175;DHT22;576;48.418;10.074;2023-04-01T04:57:44;22.20;58.40
1175;DHT22;576;48.418;10.074;2023-04-01T05:00:12;22.20;58.40
1175;DHT22;576;48.418;10.074;2023-04-01T05:03:01;22.20;58.40
1175;DHT22;576;48.418;10.074;2023-04-01T05:05:31;22.20;58.30
1175;DHT22;576;48.418;10.074;2023-04-01T05:08:01;22.20;58.30
1175;DHT22;576;48.418;10.074;2023-04-01T05:10:29;22.20;58.20
1175;DHT22;576;48.418;10.074;2023-04-01T05:12:58;22.20;58.30
1175;DHT22;576;48.418;10.074;2023-04-01T05:15:26;22.20;58.30
1175;DHT22;576;48.418;10.074;2023-04-01T05:17:55;22.20;58.20
1175;DHT22;576;48.418;10.074;2023-04-01T05:20:23;22.10;58.20
1175;DHT22;576;48.418;10.074;2023-04-01T05:22:57;22.10;58.30
1175;DHT22;576;48.418;10.074;2023-04-01T05:25:25;22.10;58.30
1175;DHT22;576;48.418;10.074;2023-04-01T05:27:54;22.10;58.40
1175;DHT22;576;48.418;10.074;2023-04-01T05:30:22;22.00;58.30
1175;DHT22;576;48.418;10.074;2023-04-01T05:33:09;22.00;58.40
1175;DHT22;576;48.418;10.074;2023-04-01T05:35:38;22.00;58.60
1175;DHT22;576;48.418;10.074;2023-04-01T05:38:08;22.00;58.60
1175;DHT22;576;48.418;10.074;2023-04-01T05:40:36;22.00;58.30
1175;DHT22;576;48.418;10.074;2023-04-01T05:43:05;22.00;58.40
1175;DHT22;576;48.418;10.074;2023-04-01T05:45:34;22.00;58.50
1175;DHT22;576;48.418;10.074;2023-04-01T05:48:11;22.00;58.40
1175;DHT22;576;48.418;10.074;2023-04-01T05:50:40;22.00;58.60
1175;DHT22;576;48.418;10.074;2023-04-01T05:53:12;22.00;58.50
1175;DHT22;576;48.418;10.074;2023-04-01T05:55:42;22.00;58.40
1175;DHT22;576;48.418;10.074;2023-04-01T05:58:10;22.00;58.40
1175;DHT22;576;48.418;10.074;2023-04-01T06:00:42;22.00;58.40
1175;DHT22;576;48.418;10.074;2023-04-01T06:03:11;22.00;58.50
1175;DHT22;576;48.418;10.074;2023-04-01T06:05:40;22.00;58.40
1175;DHT22;576;48.418;10.074;2023-04-01T06:08:14;22.00;58.40
1175;DHT22;576;48.418;10.074;2023-04-01T06:11:04;22.00;58.50
1175;DHT22;576;48.418;10.074;2023-04-01T06:13:53;22.10;58.50
1175;DHT22;576;48.418;10.074;2023-04-01T06:16:34;22.10;58.30
1175;DHT22;576;48.418;10.074;2023-04-01T06:19:16;22.10;58.20
1175;DHT22;576;48.418;10.074;2023-04-01T06:22:13;22.10;58.20
1175;DHT22;576;48.418;10.074;2023-04-01T06:25:10;22.10;58.10
1175;DHT22;576;48.418;10.074;2023-04-01T06:27:51;22.10;58.00
1175;DHT22;576;48.418;10.074;2023-04-01T06:30:34;22.10;58.10
1175;DHT22;576;48.418;10.074;2023-04-01T06:33:36;22.10;58.00
1175;DHT22;576;48.418;10.074;2023-04-01T06:36:42;22.20;58.10
1175;DHT22;576;48.418;10.074;2023-04-01T06:39:32;22.20;58.20
1175;DHT22;576;48.418;10.074;2023-04-01T06:45:11;22.10;58.10
1175;DHT22;576;48.418;10.074;2023-04-01T06:48:44;22.10;58.10
1175;DHT22;576;48.418;10.074;2023-04-01T06:51:51;22.10;58.10
1175;DHT22;576;48.418;10.074;2023-04-01T06:54:42;22.10;58.10
1175;DHT22;576;48.418;10.074;2023-04-01T06:57:35;22.10;58.10
1175;DHT22;576;48.418;10.074;2023-04-01T07:00:13;22.10;58.10
1175;DHT22;576;48.418;10.074;2023-04-01T07:02:48;22.10;58.00
1175;DHT22;576;48.418;10.074;2023-04-01T07:05:22;22.10;58.30
1175;DHT22;576;48.418;10.074;2023-04-01T07:07:53;22.10;58.20
1175;DHT22;576;48.418;10.074;2023-04-01T07:10:34;22.10;58.10
1175;DHT22;576;48.418;10.074;2023-04-01T07:13:27;22.10;58.30
1175;DHT22;576;48.418;10.074;2023-04-01T07:16:07;22.10;58.20
1175;DHT22;576;48.418;10.074;2023-04-01T07:18:43;22.10;58.10
1175;DHT22;576;48.418;10.074;2023-04-01T07:21:20;22.10;58.10
1175;DHT22;576;48.418;10.074;2023-04-01T07:23:52;22.10;58.20
1175;DHT22;576;48.418;10.074;2023-04-01T07:26:32;22.10;58.20
1175;DHT22;576;48.418;10.074;2023-04-01T07:29:09;22.20;58.10
1175;DHT22;576;48.418;10.074;2023-04-01T07:32:06;22.20;58.20
1175;DHT22;576;48.418;10.074;2023-04-01T07:34:41;22.20;58.10
1175;DHT22;576;48.418;10.074;2023-04-01T07:37:16;22.20;58.10
1175;DHT22;576;48.418;10.074;2023-04-01T07:39:49;22.20;58.00
1175;DHT22;576;48.418;10.074;2023-04-01T07:42:37;22.30;57.90
1175;DHT22;576;48.418;10.074;2023-04-01T07:45:16;22.30;57.90
1175;DHT22;576;48.418;10.074;2023-04-01T07:47:58;22.30;57.90
1175;DHT22;576;48.418;10.074;2023-04-01T07:50:31;22.30;57.90
1175;DHT22;576;48.418;10.074;2023-04-01T07:53:10;22.30;57.80
1175;DHT22;576;48.418;10.074;2023-04-01T07:55:48;22.30;57.80
1175;DHT22;576;48.418;10.074;2023-04-01T07:58:23;22.30;57.70
1175;DHT22;576;48.418;10.074;2023-04-01T08:00:59;22.30;57.90
1175;DHT22;576;48.418;10.074;2023-04-01T08:03:43;22.30;58.00
1175;DHT22;576;48.418;10.074;2023-04-01T08:06:19;22.30;57.90
1175;DHT22;576;48.418;10.074;2023-04-01T08:08:59;22.30;57.90
1175;DHT22;576;48.418;10.074;2023-04-01T08:12:02;22.30;58.10
1175;DHT22;576;48.418;10.074;2023-04-01T08:15:00;22.30;58.10
1175;DHT22;576;48.418;10.074;2023-04-01T08:18:04;22.30;58.10
1175;DHT22;576;48.418;10.074;2023-04-01T08:20:39;22.20;58.10
1175;DHT22;576;48.418;10.074;2023-04-01T08:23:14;22.20;58.10
1175;DHT22;576;48.418;10.074;2023-04-01T08:25:48;22.20;58.10
1175;DHT22;576;48.418;10.074;2023-04-01T08:28:23;22.20;58.00
1175;DHT22;576;48.418;10.074;2023-04-01T08:30:55;22.20;58.20
1175;DHT22;576;48.418;10.074;2023-04-01T08:33:27;22.20;58.40
1175;DHT22;576;48.418;10.074;2023-04-01T08:36:09;22.20;58.40
1175;DHT22;576;48.418;10.074;2023-04-01T08:38:42;22.20;58.20
1175;DHT22;576;48.418;10.074;2023-04-01T08:48:21;22.30;58.10
1175;DHT22;576;48.418;10.074;2023-04-01T08:51:09;22.30;58.10
1175;DHT22;576;48.418;10.074;2023-04-01T08:54:02;22.30;58.10
1175;DHT22;576;48.418;10.074;2023-04-01T08:56:39;22.30;58.20
1175;DHT22;576;48.418;10.074;2023-04-01T08:59:32;22.30;58.20
1175;DHT22;576;48.418;10.074;2023-04-01T09:08:30;22.30;57.90
1175;DHT22;576;48.418;10.074;2023-04-01T09:11:14;22.30;57.80
1175;DHT22;576;48.418;10.074;2023-04-01T09:14:28;22.30;57.80
1175;DHT22;576;48.418;10.074;2023-04-01T09:17:44;22.30;57.80
1175;DHT22;576;48.418;10.074;2023-04-01T09:23:28;22.20;57.90
1175;DHT22;576;48.418;10.074;2023-04-01T09:26:26;22.20;57.80
1175;DHT22;576;48.418;10.074;2023-04-01T09:29:05;22.20;57.90
1175;DHT22;576;48.418;10.074;2023-04-01T09:31:52;22.20;57.80
1175;DHT22;576;48.418;10.074;2023-04-01T09:35:02;22.20;57.90
1175;DHT22;576;48.418;10.074;2023-04-01T09:37:36;22.20;57.80
1175;DHT22;576;48.418;10.074;2023-04-01T09:40:18;22.10;57.80
1175;DHT22;576;48.418;10.074;2023-04-01T09:43:04;22.10;57.80
1175;DHT22;576;48.418;10.074;2023-04-01T09:45:52;22.10;57.80
1175;DHT22;576;48.418;10.074;2023-04-01T09:51:26;22.10;57.80
1175;DHT22;576;48.418;10.074;2023-04-01T09:54:11;22.10;57.70
1175;DHT22;576;48.418;10.074;2023-04-01T10:19:12;22.10;57.50
1175;DHT22;576;48.418;10.074;2023-04-01T10:22:11;22.10;57.40
1175;DHT22;576;48.418;10.074;2023-04-01T10:25:05;22.10;57.30
1175;DHT22;576;48.418;10.074;2023-04-01T10:38:16;22.10;57.00
1175;DHT22;576;48.418;10.074;2023-04-01T10:41:09;22.10;56.90
1175;DHT22;576;48.418;10.074;2023-04-01T10:44:24;22.10;56.80
1175;DHT22;576;48.418;10.074;2023-04-01T10:47:34;22.10;56.80
1175;DHT22;576;48.418;10.074;2023-04-01T10:50:22;22.10;56.70
1175;DHT22;576;48.418;10.074;2023-04-01T10:53:26;22.20;56.60
1175;DHT22;576;48.418;10.074;2023-04-01T10:56:34;22.20;56.50
1175;DHT22;576;48.418;10.074;2023-04-01T10:59:48;22.20;56.50
1175;DHT22;576;48.418;10.074;2023-04-01T11:06:37;22.20;56.40
1175;DHT22;576;48.418;10.074;2023-04-01T11:09:32;22.20;56.40
1175;DHT22;576;48.418;10.074;2023-04-01T11:12:20;22.20;56.30
1175;DHT22;576;48.418;10.074;2023-04-01T11:21:29;22.20;56.30
1175;DHT22;576;48.418;10.074;2023-04-01T11:24:21;22.20;56.30
1175;DHT22;576;48.418;10.074;2023-04-01T11:27:30;22.20;56.30
1175;DHT22;576;48.418;10.074;2023-04-01T11:30:22;22.20;56.20
1175;DHT22;576;48.418;10.074;2023-04-01T11:32:54;22.20;56.20
1175;DHT22;576;48.418;10.074;2023-04-01T11:35:47;22.20;56.20
1175;DHT22;576;48.418;10.074;2023-04-01T11:38:33;22.20;56.20
1175;DHT22;576;48.418;10.074;2023-04-01T11:41:32;22.20;56.20
1175;DHT22;576;48.418;10.074;2023-04-01T11:44:25;22.20;56.10
1175;DHT22;576;48.418;10.074;2023-04-01T11:47:18;22.20;56.10
1175;DHT22;576;48.418;10.074;2023-04-01T11:49:55;22.20;56.10
1175;DHT22;576;48.418;10.074;2023-04-01T11:53:01;22.20;56.10
1175;DHT22;576;48.418;10.074;2023-04-01T11:55:44;22.20;56.10
1175;DHT22;576;48.418;10.074;2023-04-01T11:58:50;22.20;56.10
1175;DHT22;576;48.418;10.074;2023-04-01T12:01:28;22.20;56.10
1175;DHT22;576;48.418;10.074;2023-04-01T12:04:30;22.20;56.20
1175;DHT22;576;48.418;10.074;2023-04-01T12:07:15;22.20;56.10
1175;DHT22;576;48.418;10.074;2023-04-01T12:09:52;22.30;56.00
1175;DHT22;576;48.418;10.074;2023-04-01T12:12:32;22.30;56.00
1175;DHT22;576;48.418;10.074;2023-04-01T12:15:19;22.30;55.90
1175;DHT22;576;48.418;10.074;2023-04-01T12:17:55;22.30;55.90
1175;DHT22;576;48.418;10.074;2023-04-01T12:20:36;22.40;55.80
1175;DHT22;576;48.418;10.074;2023-04-01T12:23:20;22.50;55.70
1175;DHT22;576;48.418;10.074;2023-04-01T12:26:12;22.50;55.60
1175;DHT22;576;48.418;10.074;2023-04-01T12:29:02;22.50;55.60
1175;DHT22;576;48.418;10.074;2023-04-01T12:31:41;22.50;55.50
1175;DHT22;576;48.418;10.074;2023-04-01T12:37:20;22.60;55.40
1175;DHT22;576;48.418;10.074;2023-04-01T12:40:07;22.60;55.40
1175;DHT22;576;48.418;10.074;2023-04-01T12:42:56;22.60;55.40
1175;DHT22;576;48.418;10.074;2023-04-01T12:45:30;22.50;55.50
1175;DHT22;576;48.418;10.074;2023-04-01T12:48:20;22.50;55.50
1175;DHT22;576;48.418;10.074;2023-04-01T12:51:11;22.50;55.50
1175;DHT22;576;48.418;10.074;2023-04-01T12:53:59;22.50;55.50
1175;DHT22;576;48.418;10.074;2023-04-01T12:56:41;22.50;55.50
1175;DHT22;576;48.418;10.074;2023-04-01T12:59:29;22.50;55.50
1175;DHT22;576;48.418;10.074;2023-04-01T13:02:07;22.50;55.50
1175;DHT22;576;48.418;10.074;2023-04-01T13:04:56;22.50;55.50
1175;DHT22;576;48.418;10.074;2023-04-01T13:07:51;22.50;55.50
1175;DHT22;576;48.418;10.074;2023-04-01T13:10:31;22.50;55.50
1175;DHT22;576;48.418;10.074;2023-04-01T13:16:14;22.50;55.50
1175;DHT22;576;48.418;10.074;2023-04-01T13:18:56;22.50;55.50
1175;DHT22;576;48.418;10.074;2023-04-01T13:21:34;22.50;55.50
1175;DHT22;576;48.418;10.074;2023-04-01T13:24:16;22.50;55.50
1175;DHT22;576;48.418;10.074;2023-04-01T13:26:56;22.50;55.50
1175;DHT22;576;48.418;10.074;2023-04-01T13:29:31;22.50;55.50
1175;DHT22;576;48.418;10.074;2023-04-01T13:32:10;22.50;55.40
1175;DHT22;576;48.418;10.074;2023-04-01T13:34:56;22.50;55.50
1175;DHT22;576;48.418;10.074;2023-04-01T13:37:46;22.50;55.40
1175;DHT22;576;48.418;10.074;2023-04-01T13:40:39;22.50;55.50
1175;DHT22;576;48.418;10.074;2023-04-01T13:43:32;22.50;55.50
1175;DHT22;576;48.418;10.074;2023-04-01T13:46:17;22.50;55.50
1175;DHT22;576;48.418;10.074;2023-04-01T13:49:11;22.50;55.50
1175;DHT22;576;48.418;10.074;2023-04-01T13:52:05;22.50;55.50
1175;DHT22;576;48.418;10.074;2023-04-01T13:55:00;22.50;55.40
1175;DHT22;576;48.418;10.074;2023-04-01T13:57:44;22.50;55.40
1175;DHT22;576;48.418;10.074;2023-04-01T14:00:38;22.50;55.50
1175;DHT22;576;48.418;10.074;2023-04-01T14:03:27;22.50;55.40
1175;DHT22;576;48.418;10.074;2023-04-01T14:06:13;22.50;55.40
1175;DHT22;576;48.418;10.074;2023-04-01T14:09:05;22.50;55.40
1175;DHT22;576;48.418;10.074;2023-04-01T14:11:45;22.50;55.40
1175;DHT22;576;48.418;10.074;2023-04-01T14:14:24;22.50;55.50
1175;DHT22;576;48.418;10.074;2023-04-01T14:17:21;22.50;55.50
1175;DHT22;576;48.418;10.074;2023-04-01T14:20:16;22.50;55.40
1175;DHT22;576;48.418;10.074;2023-04-01T14:22:59;22.50;55.50
1175;DHT22;576;48.418;10.074;2023-04-01T14:25:48;22.50;55.40
1175;DHT22;576;48.418;10.074;2023-04-01T14:28:27;22.50;55.40
1175;DHT22;576;48.418;10.074;2023-04-01T14:31:14;22.50;55.50
1175;DHT22;576;48.418;10.074;2023-04-01T14:33:53;22.50;55.50
1175;DHT22;576;48.418;10.074;2023-04-01T14:36:36;22.50;55.50
1175;DHT22;576;48.418;10.074;2023-04-01T14:39:20;22.50;55.50
1175;DHT22;576;48.418;10.074;2023-04-01T14:42:09;22.50;55.50
1175;DHT22;576;48.418;10.074;2023-04-01T14:45:12;22.50;55.50
1175;DHT22;576;48.418;10.074;2023-04-01T14:47:50;22.50;55.50
1175;DHT22;576;48.418;10.074;2023-04-01T14:50:22;22.50;55.60
1175;DHT22;576;48.418;10.074;2023-04-01T14:53:09;22.50;55.50
1175;DHT22;576;48.418;10.074;2023-04-01T14:55:48;22.50;55.60
1175;DHT22;576;48.418;10.074;2023-04-01T14:58:20;22.50;55.50
1175;DHT22;576;48.418;10.074;2023-04-01T15:01:01;22.50;55.50
1175;DHT22;576;48.418;10.074;2023-04-01T15:03:39;22.50;55.50
1175;DHT22;576;48.418;10.074;2023-04-01T15:06:30;22.50;55.40
1175;DHT22;576;48.418;10.074;2023-04-01T15:09:07;22.50;55.50
1175;DHT22;576;48.418;10.074;2023-04-01T15:11:49;22.50;55.50
1175;DHT22;576;48.418;10.074;2023-04-01T15:14:52;22.50;55.50
1175;DHT22;576;48.418;10.074;2023-04-01T15:17:37;22.50;55.50
1175;DHT22;576;48.418;10.074;2023-04-01T15:23:15;22.50;55.50
1175;DHT22;576;48.418;10.074;2023-04-01T15:25:57;22.40;55.50
1175;DHT22;576;48.418;10.074;2023-04-01T15:28:36;22.40;55.50
1175;DHT22;576;48.418;10.074;2023-04-01T15:31:15;22.40;55.50
1175;DHT22;576;48.418;10.074;2023-04-01T15:36:44;22.40;55.50
1175;DHT22;576;48.418;10.074;2023-04-01T15:39:16;22.40;55.50
1175;DHT22;576;48.418;10.074;2023-04-01T15:41:58;22.40;55.50
1175;DHT22;576;48.418;10.074;2023-04-01T15:44:48;22.30;55.50
1175;DHT22;576;48.418;10.074;2023-04-01T15:47:36;22.30;55.60
1175;DHT22;576;48.418;10.074;2023-04-01T15:50:26;22.30;55.60
1175;DHT22;576;48.418;10.074;2023-04-01T15:53:08;22.30;55.60
1175;DHT22;576;48.418;10.074;2023-04-01T15:55:43;22.30;55.60
1175;DHT22;576;48.418;10.074;2023-04-01T15:58:24;22.30;55.70
1175;DHT22;576;48.418;10.074;2023-04-01T16:01:07;22.30;55.70
1175;DHT22;576;48.418;10.074;2023-04-01T16:03:46;22.30;55.70
1175;DHT22;576;48.418;10.074;2023-04-01T16:06:42;22.30;55.70
1175;DHT22;576;48.418;10.074;2023-04-01T16:09:27;22.40;55.70
1175;DHT22;576;48.418;10.074;2023-04-01T16:12:06;22.40;55.60
1175;DHT22;576;48.418;10.074;2023-04-01T16:14:43;22.40;55.60
1175;DHT22;576;48.418;10.074;2023-04-01T16:17:36;22.40;55.50
1175;DHT22;576;48.418;10.074;2023-04-01T16:20:18;22.40;55.50
1175;DHT22;576;48.418;10.074;2023-04-01T16:22:53;22.40;55.50
1175;DHT22;576;48.418;10.074;2023-04-01T16:25:31;22.40;55.50
1175;DHT22;576;48.418;10.074;2023-04-01T16:28:19;22.40;55.50
1175;DHT22;576;48.418;10.074;2023-04-01T16:30:57;22.40;55.50
1175;DHT22;576;48.418;10.074;2023-04-01T16:33:35;22.40;55.40
1175;DHT22;576;48.418;10.074;2023-04-01T16:36:11;22.30;55.40
1175;DHT22;576;48.418;10.074;2023-04-01T16:38:46;22.30;55.50
1175;DHT22;576;48.418;10.074;2023-04-01T16:41:20;22.30;55.40
1175;DHT22;576;48.418;10.074;2023-04-01T16:43:55;22.30;55.50
1175;DHT22;576;48.418;10.074;2023-04-01T16:46:30;22.30;55.50
1175;DHT22;576;48.418;10.074;2023-04-01T16:49:32;22.20;55.50
1175;DHT22;576;48.418;10.074;2023-04-01T16:52:17;22.20;55.50
1175;DHT22;576;48.418;10.074;2023-04-01T16:54:54;22.20;55.60
1175;DHT22;576;48.418;10.074;2023-04-01T16:57:27;22.20;55.60
1175;DHT22;576;48.418;10.074;2023-04-01T17:00:02;22.20;55.60
1175;DHT22;576;48.418;10.074;2023-04-01T17:02:35;22.10;55.70
1175;DHT22;576;48.418;10.074;2023-04-01T17:05:08;22.10;55.70
1175;DHT22;576;48.418;10.074;2023-04-01T17:07:46;22.10;55.70
1175;DHT22;576;48.418;10.074;2023-04-01T17:10:26;22.10;55.70
1175;DHT22;576;48.418;10.074;2023-04-01T17:13:11;22.10;55.70
1175;DHT22;576;48.418;10.074;2023-04-01T17:15:48;22.10;55.80
1175;DHT22;576;48.418;10.074;2023-04-01T17:18:26;22.10;55.80
1175;DHT22;576;48.418;10.074;2023-04-01T17:21:05;22.10;55.80
1175;DHT22;576;48.418;10.074;2023-04-01T17:23:38;22.10;55.80
1175;DHT22;576;48.418;10.074;2023-04-01T17:26:23;22.10;55.90
1175;DHT22;576;48.418;10.074;2023-04-01T17:28:58;22.10;55.90
1175;DHT22;576;48.418;10.074;2023-04-01T17:31:45;22.10;55.90
1175;DHT22;576;48.418;10.074;2023-04-01T17:34:31;22.10;55.90
1175;DHT22;576;48.418;10.074;2023-04-01T17:37:15;22.10;55.90
1175;DHT22;576;48.418;10.074;2023-04-01T17:40:00;22.20;55.90
1175;DHT22;576;48.418;10.074;2023-04-01T17:42:38;22.20;55.90
1175;DHT22;576;48.418;10.074;2023-04-01T17:45:16;22.20;55.90
1175;DHT22;576;48.418;10.074;2023-04-01T17:47:52;22.20;55.90
1175;DHT22;576;48.418;10.074;2023-04-01T17:50:24;22.20;55.90
1175;DHT22;576;48.418;10.074;2023-04-01T17:53:09;22.20;55.80
1175;DHT22;576;48.418;10.074;2023-04-01T17:55:50;22.20;55.80
1175;DHT22;576;48.418;10.074;2023-04-01T17:58:22;22.20;55.80
1175;DHT22;576;48.418;10.074;2023-04-01T18:01:02;22.20;55.80
1175;DHT22;576;48.418;10.074;2023-04-01T18:06:34;22.20;55.80
1175;DHT22;576;48.418;10.074;2023-04-01T18:09:14;22.20;55.80
1175;DHT22;576;48.418;10.074;2023-04-01T18:11:55;22.20;55.90
1175;DHT22;576;48.418;10.074;2023-04-01T18:14:42;22.10;55.80
1175;DHT22;576;48.418;10.074;2023-04-01T18:17:18;22.10;55.90
1175;DHT22;576;48.418;10.074;2023-04-01T18:19:59;22.10;55.90
1175;DHT22;576;48.418;10.074;2023-04-01T18:22:36;22.10;55.90
1175;DHT22;576;48.418;10.074;2023-04-01T18:25:18;22.10;55.90
1175;DHT22;576;48.418;10.074;2023-04-01T18:27:51;22.00;55.90
1175;DHT22;576;48.418;10.074;2023-04-01T18:30:25;22.00;55.90
1175;DHT22;576;48.418;10.074;2023-04-01T18:32:58;22.00;56.00
1175;DHT22;576;48.418;10.074;2023-04-01T18:35:34;22.00;56.00
1175;DHT22;576;48.418;10.074;2023-04-01T18:38:12;22.00;56.00
1175;DHT22;576;48.418;10.074;2023-04-01T18:40:45;22.00;56.00
1175;DHT22;576;48.418;10.074;2023-04-01T18:43:22;22.00;56.00